Time;durP1;ratioP1;P1;durP2;ratioP2;P2;SDS_P1;SDS_P2;PMS_P1;PMS_P2;Temp;Humidity;BMP_temperature;BMP_pressure;BME280_temperature;BME280_humidity;BME280_pressure;Samples;Min_cycle;Max_cycle;Signal;HPM_P1;HPM_P2
2023/03/11 00:01:28;;;;;;;0.00;0.00;;;9.80;99.70;;;;;;4992359;28;20340;-77
2023/03/11 00:03:57;;;;;;;0.00;0.00;;;9.80;99.80;;;;;;4968187;28;20034;-77
2023/03/11 00:06:35;;;;;;;0.00;0.00;;;9.70;99.70;;;;;;4984366;28;20460;-77
2023/03/11 00:09:03;;;;;;;0.00;0.00;;;9.70;99.70;;;;;;4967717;28;20038;-77
2023/03/11 00:11:30;;;;;;;0.00;0.00;;;9.70;99.80;;;;;;4969506;28;20037;-77
2023/03/11 00:13:57;;;;;;;0.00;0.00;;;9.60;99.90;;;;;;4985139;28;20030;-77
2023/03/11 00:16:28;;;;;;;;;;;9.60;99.90;;;;;;4968269;28;20018;-76
2023/03/11 00:18:56;;;;;;;0.00;0.00;;;9.60;99.90;;;;;;4986157;28;19905;-76
2023/03/11 00:21:23;;;;;;;0.00;0.00;;;9.60;99.90;;;;;;4968739;28;20022;-76
2023/03/11 00:23:52;;;;;;;0.00;0.00;;;9.60;99.90;;;;;;4969888;28;20136;-77
2023/03/11 00:26:19;;;;;;;0.00;0.00;;;9.60;99.90;;;;;;4981182;28;20080;-77
2023/03/11 00:28:44;;;;;;;;;;;9.60;99.90;;;;;;4989407;28;20019;-77
2023/03/11 00:31:12;;;;;;;0.00;0.00;;;9.50;99.90;;;;;;4985436;28;19988;-77
2023/03/11 00:33:45;;;;;;;0.00;0.00;;;9.60;99.90;;;;;;4978330;28;20076;-76
2023/03/11 00:36:27;;;;;;;0.00;0.00;;;9.60;99.90;;;;;;4987886;28;20802;-76
2023/03/11 00:39:05;;;;;;;0.00;0.00;;;9.60;99.90;;;;;;4982555;28;20032;-77
2023/03/11 00:41:33;;;;;;;0.00;0.00;;;9.40;99.90;;;;;;4969010;28;20129;-77
2023/03/11 00:43:59;;;;;;;0.00;0.00;;;9.10;99.90;;;;;;4981395;28;20124;-77
2023/03/11 00:46:31;;;;;;;0.00;0.00;;;8.80;99.90;;;;;;4966979;28;20491;-77
2023/03/11 00:48:58;;;;;;;0.00;0.00;;;8.50;99.90;;;;;;4987908;28;20419;-77
2023/03/11 00:51:24;;;;;;;0.00;0.00;;;8.40;99.90;;;;;;4967260;28;20385;-77
2023/03/11 00:53:56;;;;;;;0.00;0.00;;;8.30;99.90;;;;;;4967222;28;20038;-76
2023/03/11 00:56:33;;;;;;;0.00;0.00;;;8.10;99.90;;;;;;4969352;28;20022;-77
2023/03/11 00:59:01;;;;;;;0.00;0.00;;;8.00;99.90;;;;;;4967310;28;20045;-77
2023/03/11 01:01:27;;;;;;;0.00;0.00;;;7.90;99.90;;;;;;4984951;28;20365;-77
2023/03/11 01:03:54;;;;;;;0.00;0.00;;;7.90;99.90;;;;;;4965973;28;20034;-77
2023/03/11 01:06:20;;;;;;;0.00;0.00;;;7.90;99.90;;;;;;4963381;28;20526;-77
2023/03/11 01:08:46;;;;;;;0.00;0.00;;;7.90;99.90;;;;;;4987245;28;20026;-76
2023/03/11 01:11:13;;;;;;;0.00;0.00;;;7.80;99.90;;;;;;4969338;28;20021;-76
2023/03/11 01:13:41;;;;;;;0.00;0.00;;;7.80;99.90;;;;;;4966296;28;20034;-76
2023/03/11 01:16:10;;;;;;;0.00;0.00;;;7.80;99.90;;;;;;4969425;28;20888;-77
2023/03/11 01:18:36;;;;;;;0.00;0.00;;;7.80;99.90;;;;;;4985506;28;20084;-78
2023/03/11 01:21:02;;;;;;;;;;;7.90;99.90;;;;;;4961145;28;20139;-77
2023/03/11 01:23:38;;;;;;;0.00;0.00;;;7.90;99.90;;;;;;4984484;28;20006;-76
2023/03/11 01:26:03;;;;;;;0.00;0.00;;;8.00;99.90;;;;;;4968500;28;20714;-77
2023/03/11 01:28:30;;;;;;;0.00;0.00;;;8.00;99.90;;;;;;4961543;28;20042;-77
2023/03/11 01:30:56;;;;;;;0.00;0.00;;;7.90;99.90;;;;;;4968928;28;20051;-77
2023/03/11 01:33:29;;;;;;;0.00;0.00;;;8.00;99.90;;;;;;4966355;28;20022;-76
2023/03/11 01:36:01;;;;;;;0.00;0.00;;;8.00;99.90;;;;;;4983156;28;20014;-77
2023/03/11 01:38:30;;;;;;;0.00;0.00;;;8.00;99.90;;;;;;4965586;28;20104;-77
2023/03/11 01:40:56;;;;;;;0.00;0.00;;;8.00;99.90;;;;;;4964719;28;20026;-77
2023/03/11 01:43:44;;;;;;;0.00;0.00;;;8.10;99.90;;;;;;4967128;28;20029;-77
2023/03/11 01:46:15;;;;;;;0.00;0.00;;;8.10;99.90;;;;;;4966062;28;20030;-77
2023/03/11 01:48:59;;;;;;;0.00;0.00;;;8.00;99.90;;;;;;4963538;28;20050;-77
2023/03/11 01:51:39;;;;;;;0.00;0.00;;;8.00;99.90;;;;;;4960045;28;20530;-77
2023/03/11 01:54:13;;;;;;;0.00;0.00;;;8.00;99.90;;;;;;4983142;28;20028;-76
2023/03/11 01:56:48;;;;;;;0.00;0.00;;;7.90;99.90;;;;;;4968968;28;20030;-76
2023/03/11 01:59:24;;;;;;;0.00;0.00;;;8.00;99.90;;;;;;4985339;28;20081;-76
2023/03/11 02:02:41;;;;;;;0.00;0.00;;;8.00;99.90;;;;;;4979759;28;20054;-76
2023/03/11 02:05:08;;;;;;;0.00;0.00;;;7.90;99.10;;;;;;4952835;28;20025;-76
2023/03/11 02:07:39;;;;;;;0.00;0.00;;;7.90;99.00;;;;;;4963382;28;20010;-77
2023/03/11 02:10:07;;;;;;;0.00;0.00;;;7.80;97.70;;;;;;4987214;28;20403;-77
2023/03/11 02:12:45;;;;;;;0.00;0.00;;;7.70;96.00;;;;;;4966024;28;20041;-76
2023/03/11 02:15:11;;;;;;;0.00;0.00;;;7.50;96.10;;;;;;4967033;28;20023;-77
2023/03/11 02:17:40;;;;;;;0.00;0.00;;;7.40;95.00;;;;;;4967888;28;20104;-76
2023/03/11 02:20:12;;;;;;;0.00;0.00;;;7.20;96.00;;;;;;4981165;28;20037;-77
2023/03/11 02:22:42;;;;;;;0.00;0.00;;;7.10;95.00;;;;;;4983673;28;20030;-76
2023/03/11 02:25:09;;;;;;;0.00;0.00;;;7.00;95.50;;;;;;4965072;28;21517;-77
2023/03/11 02:27:43;;;;;;;0.00;0.00;;;6.90;94.80;;;;;;4982279;28;20110;-77
2023/03/11 02:30:11;;;;;;;0.00;0.00;;;6.80;95.30;;;;;;4961486;28;20034;-77
2023/03/11 02:32:40;;;;;;;0.00;0.00;;;6.70;95.80;;;;;;4981988;28;20022;-76
2023/03/11 02:35:14;;;;;;;0.00;0.00;;;6.60;96.30;;;;;;4966014;28;20396;-76
2023/03/11 02:37:49;;;;;;;0.00;0.00;;;6.50;96.80;;;;;;4966204;28;20022;-76
2023/03/11 02:40:50;;;;;;;0.00;0.00;;;6.40;95.90;;;;;;4969775;28;20562;-76
2023/03/11 02:43:22;;;;;;;0.00;0.00;;;6.30;96.80;;;;;;4955591;28;20117;-76
2023/03/11 02:46:08;;;;;;;0.00;0.00;;;6.30;96.90;;;;;;4983013;28;20030;-76
2023/03/11 02:48:37;;;;;;;0.00;0.00;;;6.30;96.90;;;;;;4983185;28;20018;-77
2023/03/11 02:51:09;;;;;;;0.00;0.00;;;6.20;96.30;;;;;;4968961;28;20105;-79
2023/03/11 02:53:43;;;;;;;0.00;0.00;;;6.20;97.30;;;;;;4964573;28;20109;-77
2023/03/11 02:56:10;;;;;;;0.00;0.00;;;6.20;97.00;;;;;;4969569;28;20026;-76
2023/03/11 02:58:42;;;;;;;0.00;0.00;;;6.10;96.70;;;;;;4985314;28;20022;-77
2023/03/11 03:01:09;;;;;;;0.00;0.00;;;6.10;96.10;;;;;;4987548;28;20072;-77
2023/03/11 03:03:35;;;;;;;0.00;0.00;;;6.20;96.10;;;;;;4987748;28;20349;-77
2023/03/11 03:06:02;;;;;;;0.00;0.00;;;6.20;95.70;;;;;;4964458;28;20046;-77
2023/03/11 03:08:35;;;;;;;;;;;6.20;95.40;;;;;;4970879;28;20556;-77
2023/03/11 03:11:10;;;;;;;0.00;0.00;;;6.30;95.40;;;;;;4984859;28;19914;-77
2023/03/11 03:13:40;;;;;;;0.00;0.00;;;6.30;94.90;;;;;;4970147;28;20026;-77
2023/03/11 03:16:06;;;;;;;0.00;0.00;;;6.20;95.00;;;;;;4986027;28;20499;-77
2023/03/11 03:18:36;;;;;;;0.00;0.00;;;6.20;95.40;;;;;;4986615;28;20019;-77
2023/03/11 03:21:04;;;;;;;0.00;0.00;;;6.20;94.60;;;;;;4986490;28;20114;-77
2023/03/11 03:23:33;;;;;;;0.00;0.00;;;6.20;95.30;;;;;;4967723;28;20073;-77
2023/03/11 03:26:00;;;;;;;0.00;0.00;;;6.20;95.30;;;;;;4985514;28;20112;-77
2023/03/11 03:28:27;;;;;;;0.00;0.00;;;6.10;95.60;;;;;;4967477;28;20368;-77
2023/03/11 03:31:07;;;;;;;;;;;6.20;94.70;;;;;;4985794;28;20499;-77
2023/03/11 03:33:39;;;;;;;0.00;0.00;;;6.10;94.40;;;;;;4984930;28;20000;-77
2023/03/11 03:36:10;;;;;;;0.00;0.00;;;6.00;95.20;;;;;;4968680;28;20026;-78
2023/03/11 03:38:39;;;;;;;0.00;0.00;;;6.10;95.50;;;;;;4970123;28;20446;-77
2023/03/11 03:41:12;;;;;;;0.00;0.00;;;6.10;95.50;;;;;;4967626;28;20032;-77
2023/03/11 03:43:39;;;;;;;0.00;0.00;;;6.10;95.20;;;;;;4972945;28;20035;-78
2023/03/11 03:46:05;;;;;;;0.00;0.00;;;6.50;95.40;;;;;;4967502;28;20025;-77
2023/03/11 03:48:38;;;;;;;0.00;0.00;;;6.00;95.00;;;;;;4968541;28;20499;-77
2023/03/11 03:51:08;;;;;;;0.00;0.00;;;6.00;95.20;;;;;;4963055;28;20017;-77
2023/03/11 03:53:36;;;;;;;0.00;0.00;;;6.00;95.20;;;;;;4987542;28;20018;-77
2023/03/11 03:56:08;;;;;;;0.00;0.00;;;6.10;95.10;;;;;;4968325;28;20543;-77
2023/03/11 03:58:38;;;;;;;0.00;0.00;;;6.00;95.30;;;;;;4980299;28;20027;-77
2023/03/11 04:01:05;;;;;;;0.00;0.00;;;6.00;94.50;;;;;;4983334;28;20100;-77
2023/03/11 04:03:34;;;;;;;0.00;0.00;;;6.10;94.40;;;;;;4969178;28;20111;-78
2023/03/11 04:06:10;;;;;;;0.00;0.00;;;5.80;94.40;;;;;;4974409;28;20050;-77
2023/03/11 04:08:39;;;;;;;0.00;0.00;;;5.70;94.10;;;;;;4964973;28;20018;-78
2023/03/11 04:11:11;;;;;;;0.00;0.00;;;5.60;93.60;;;;;;4983878;28;20353;-76
2023/03/11 04:13:37;;;;;;;0.00;0.00;;;5.40;93.70;;;;;;4963476;28;20022;-77
2023/03/11 04:16:05;;;;;;;0.00;0.00;;;5.30;93.80;;;;;;4970728;28;20047;-77
2023/03/11 04:18:34;;;;;;;0.00;0.00;;;5.10;94.30;;;;;;4980022;28;20037;-77
2023/03/11 04:21:03;;;;;;;0.00;0.00;;;5.10;93.50;;;;;;4967652;28;20030;-77
2023/03/11 04:23:29;;;;;;;0.00;0.00;;;5.00;92.90;;;;;;4968598;28;20702;-77
2023/03/11 04:25:58;;;;;;;0.00;0.00;;;5.00;92.80;;;;;;4984085;28;20077;-77
2023/03/11 04:28:31;;;;;;;0.00;0.00;;;4.90;92.30;;;;;;4967728;28;20117;-78
2023/03/11 04:30:57;;;;;;;0.00;0.00;;;4.80;92.30;;;;;;4983809;28;20018;-77
2023/03/11 04:33:23;;;;;;;0.00;0.00;;;4.80;92.40;;;;;;4968875;28;20501;-77
2023/03/11 04:35:52;;;;;;;0.00;0.00;;;4.70;91.80;;;;;;4987935;28;20073;-77
2023/03/11 04:38:21;;;;;;;0.00;0.00;;;4.70;91.90;;;;;;4986783;28;20761;-77
2023/03/11 04:40:47;;;;;;;0.00;0.00;;;4.60;91.80;;;;;;4984243;28;20042;-77
2023/03/11 04:43:13;;;;;;;0.00;0.00;;;4.60;91.80;;;;;;4968624;28;20023;-77
2023/03/11 04:45:41;;;;;;;0.00;0.00;;;4.50;91.60;;;;;;4986223;28;20292;-77
2023/03/11 04:48:08;;;;;;;0.00;0.00;;;4.50;90.90;;;;;;4984220;28;20021;-76
2023/03/11 04:50:33;;;;;;;0.00;0.00;;;4.40;90.90;;;;;;4962099;28;20025;-76
2023/03/11 04:52:59;;;;;;;0.00;0.00;;;4.40;90.80;;;;;;4967631;28;20035;-76
2023/03/11 04:55:30;;;;;;;0.00;0.00;;;4.40;90.10;;;;;;4969123;28;20018;-77
2023/03/11 04:57:57;;;;;;;0.00;0.00;;;4.30;90.20;;;;;;4983837;28;20026;-77
2023/03/11 05:00:27;;;;;;;0.00;0.00;;;4.30;89.70;;;;;;4987553;28;20558;-77
2023/03/11 05:02:54;;;;;;;0.00;0.00;;;4.30;89.40;;;;;;4982587;28;20145;-77
2023/03/11 05:05:20;;;;;;;0.00;0.00;;;4.40;89.20;;;;;;4983348;28;20064;-76
2023/03/11 05:07:51;;;;;;;0.00;0.00;;;4.30;89.30;;;;;;4965503;28;20540;-77
2023/03/11 05:10:21;;;;;;;0.00;0.00;;;4.30;89.60;;;;;;4961278;28;20026;-76
2023/03/11 05:12:50;;;;;;;0.00;0.00;;;4.20;89.70;;;;;;4963930;28;20123;-77
2023/03/11 05:15:17;;;;;;;0.00;0.00;;;4.20;89.60;;;;;;4982481;28;20102;-76
2023/03/11 05:17:47;;;;;;;0.00;0.00;;;4.20;89.70;;;;;;4966363;28;20635;-76
2023/03/11 05:20:16;;;;;;;0.00;0.00;;;4.20;89.80;;;;;;4968657;28;20104;-77
2023/03/11 05:22:42;;;;;;;0.00;0.00;;;4.10;89.90;;;;;;4982113;28;20057;-77
2023/03/11 05:25:08;;;;;;;0.00;0.00;;;4.10;90.00;;;;;;4966891;28;20089;-77
2023/03/11 05:27:48;;;;;;;0.00;0.00;;;4.30;89.20;;;;;;4981249;28;20088;-76
2023/03/11 05:30:16;;;;;;;0.00;0.00;;;4.50;88.70;;;;;;4972766;28;20631;-77
2023/03/11 05:32:50;;;;;;;0.00;0.00;;;4.60;88.20;;;;;;4984682;28;20030;-76
2023/03/11 05:35:17;;;;;;;0.00;0.00;;;4.70;87.30;;;;;;4961039;28;20625;-77
2023/03/11 05:37:44;;;;;;;0.00;0.00;;;4.80;86.70;;;;;;4966235;28;20026;-77
2023/03/11 05:40:13;;;;;;;;;;;5.20;86.00;;;;;;4968136;28;20062;-77
2023/03/11 05:42:40;;;;;;;0.00;0.00;;;5.70;83.30;;;;;;4982158;28;19928;-78
2023/03/11 05:45:07;;;;;;;0.00;0.00;;;5.80;82.10;;;;;;4966135;28;20624;-76
2023/03/11 05:47:34;;;;;;;0.00;0.00;;;5.70;80.90;;;;;;4980382;28;20433;-79
2023/03/11 05:50:01;;;;;;;0.00;0.00;;;5.90;82.20;;;;;;4983115;28;20045;-76
2023/03/11 05:52:26;;;;;;;;;;;7.10;93.50;;;;;;4987642;28;20426;-76
2023/03/11 05:54:56;;;;;;;0.00;0.00;;;8.00;76.70;;;;;;4969250;28;19906;-75
2023/03/11 05:57:24;;;;;;;0.00;0.00;;;8.40;71.40;;;;;;4966441;28;20019;-76
2023/03/11 05:59:50;;;;;;;0.00;0.00;;;8.70;68.30;;;;;;4984846;28;20157;-76
2023/03/11 06:02:17;;;;;;;0.00;0.00;;;9.10;66.50;;;;;;4968179;28;20037;-76
2023/03/11 06:04:45;;;;;;;0.00;0.00;;;9.10;65.00;;;;;;4982774;28;20053;-75
2023/03/11 06:07:15;;;;;;;0.00;0.00;;;9.30;64.50;;;;;;4989676;28;20092;-75
2023/03/11 06:09:41;;;;;;;0.00;0.00;;;9.40;63.40;;;;;;4975798;28;20092;-76
2023/03/11 06:12:07;;;;;;;0.00;0.00;;;9.30;63.10;;;;;;4966577;28;20030;-75
2023/03/11 06:14:37;;;;;;;0.00;0.00;;;9.10;63.10;;;;;;4966733;28;20391;-75
2023/03/11 06:17:11;;;;;;;0.00;0.00;;;8.70;63.70;;;;;;4967007;28;20125;-75
2023/03/11 06:19:37;;;;;;;0.00;0.00;;;8.90;63.90;;;;;;4979249;28;20092;-75
2023/03/11 06:22:03;;;;;;;;;;;9.00;63.30;;;;;;4962275;28;20026;-75
2023/03/11 06:24:35;;;;;;;0.00;0.00;;;9.00;63.60;;;;;;4970090;28;19924;-75
2023/03/11 06:27:08;;;;;;;0.00;0.00;;;9.30;62.80;;;;;;4983290;28;20538;-75
2023/03/11 06:29:33;;;;;;;0.00;0.00;;;9.70;61.70;;;;;;4971834;28;20029;-75
2023/03/11 06:32:05;;;;;;;0.00;0.00;;;10.50;60.50;;;;;;4972352;28;20030;-75
2023/03/11 06:34:37;;;;;;;0.00;0.00;;;10.90;58.90;;;;;;4983276;28;20050;-75
2023/03/11 06:37:03;;;;;;;0.00;0.00;;;12.20;56.80;;;;;;4967476;28;20026;-75
2023/03/11 06:39:29;;;;;;;0.20;0.20;;;12.90;54.30;;;;;;4970699;28;20052;-75
2023/03/11 06:41:56;;;;;;;0.00;0.00;;;13.20;53.10;;;;;;4983970;28;20109;-76
2023/03/11 06:44:24;;;;;;;0.00;0.00;;;13.60;52.40;;;;;;4985682;28;20491;-74
2023/03/11 06:46:50;;;;;;;0.00;0.00;;;13.90;56.40;;;;;;4987936;28;20023;-75
2023/03/11 06:49:15;;;;;;;0.00;0.00;;;14.70;56.30;;;;;;4969590;28;20030;-73
2023/03/11 06:51:41;;;;;;;0.00;0.00;;;15.30;51.30;;;;;;4990089;28;20030;-73
2023/03/11 06:54:09;;;;;;;0.00;0.00;;;16.20;50.40;;;;;;4969635;28;20026;-73
2023/03/11 06:56:36;;;;;;;0.00;0.00;;;16.70;48.10;;;;;;4970030;28;20378;-74
2023/03/11 06:59:03;;;;;;;0.00;0.00;;;17.10;46.30;;;;;;4979455;28;20053;-76
2023/03/11 07:01:29;;;;;;;0.00;0.00;;;17.20;45.10;;;;;;4992268;28;20720;-75
2023/03/11 07:03:56;;;;;;;0.00;0.00;;;17.60;44.20;;;;;;4981277;28;20022;-75
2023/03/11 07:06:25;;;;;;;0.00;0.00;;;17.40;44.10;;;;;;4985991;28;20045;-75
2023/03/11 07:08:53;;;;;;;0.00;0.00;;;17.20;43.60;;;;;;4982677;28;20046;-75
2023/03/11 07:11:29;;;;;;;0.00;0.00;;;17.40;43.70;;;;;;4970846;28;20022;-75
2023/03/11 07:13:55;;;;;;;0.33;0.33;;;17.90;43.40;;;;;;4964400;28;20474;-76
2023/03/11 07:16:26;;;;;;;0.00;0.00;;;18.30;42.40;;;;;;4983055;28;20049;-76
2023/03/11 07:18:57;;;;;;;0.00;0.00;;;18.50;42.30;;;;;;4969078;28;20030;-75
2023/03/11 07:21:27;;;;;;;0.00;0.00;;;18.70;41.80;;;;;;4968338;28;20549;-75
2023/03/11 07:23:54;;;;;;;0.00;0.00;;;18.90;40.70;;;;;;4982083;28;20249;-76
2023/03/11 07:26:22;;;;;;;0.00;0.00;;;18.40;40.90;;;;;;4986031;28;20076;-76
2023/03/11 07:28:48;;;;;;;0.00;0.00;;;18.70;40.60;;;;;;4978377;28;20049;-76
2023/03/11 07:31:18;;;;;;;0.00;0.00;;;18.90;40.20;;;;;;4971539;28;20488;-76
2023/03/11 07:33:45;;;;;;;0.00;0.00;;;19.90;39.40;;;;;;4971843;28;20109;-75
2023/03/11 07:36:14;;;;;;;0.00;0.00;;;20.10;39.10;;;;;;4962521;28;20022;-77
2023/03/11 07:38:40;;;;;;;0.00;0.00;;;20.10;38.60;;;;;;4980571;28;20101;-76
2023/03/11 07:41:11;;;;;;;0.00;0.00;;;20.70;38.30;;;;;;4967700;28;20034;-76
2023/03/11 07:43:37;;;;;;;0.00;0.00;;;20.30;38.00;;;;;;4988746;28;20475;-76
2023/03/11 07:46:08;;;;;;;0.00;0.00;;;20.20;38.60;;;;;;4985996;28;20034;-76
2023/03/11 07:48:39;;;;;;;0.00;0.00;;;20.30;38.20;;;;;;4963821;28;20022;-76
2023/03/11 07:51:33;;;;;;;0.00;0.00;;;20.30;38.00;;;;;;4979410;28;20029;-76
2023/03/11 07:54:04;;;;;;;0.00;0.00;;;20.80;37.70;;;;;;4965573;28;20125;-76
2023/03/11 07:56:33;;;;;;;0.00;0.00;;;21.20;37.30;;;;;;4971302;28;20105;-77
2023/03/11 07:59:01;;;;;;;0.00;0.00;;;21.80;37.30;;;;;;4988421;28;20092;-77
2023/03/11 08:01:35;;;;;;;0.00;0.00;;;22.30;36.00;;;;;;4967985;28;20490;-77
2023/03/11 08:04:10;;;;;;;0.00;0.00;;;22.30;36.10;;;;;;4985585;28;20115;-76
2023/03/11 08:06:36;;;;;;;0.00;0.00;;;22.60;35.70;;;;;;4963073;28;20025;-76
2023/03/11 08:09:07;;;;;;;0.00;0.00;;;22.50;35.60;;;;;;4986180;28;20116;-76
2023/03/11 08:11:40;;;;;;;0.00;0.00;;;22.00;36.80;;;;;;4984363;28;20030;-76
2023/03/11 08:14:07;;;;;;;0.00;0.00;;;23.30;35.70;;;;;;4968567;28;20049;-77
2023/03/11 08:16:34;;;;;;;0.00;0.00;;;23.50;34.80;;;;;;4986692;28;20170;-78
2023/03/11 08:19:01;;;;;;;0.00;0.00;;;24.20;34.50;;;;;;4986545;28;20500;-76
2023/03/11 08:21:30;;;;;;;0.00;0.00;;;24.80;34.00;;;;;;4980304;28;20117;-77
2023/03/11 08:24:03;;;;;;;0.00;0.00;;;25.00;33.50;;;;;;4979700;28;20026;-77
2023/03/11 08:26:34;;;;;;;0.00;0.00;;;25.20;33.50;;;;;;4981947;28;20034;-77
2023/03/11 08:29:03;;;;;;;0.00;0.00;;;25.70;33.40;;;;;;4987927;28;20018;-76
2023/03/11 08:31:35;;;;;;;0.00;0.00;;;25.70;33.40;;;;;;4967307;28;20563;-78
2023/03/11 08:34:04;;;;;;;0.00;0.00;;;26.00;33.20;;;;;;4970312;28;20034;-77
2023/03/11 08:36:36;;;;;;;0.00;0.00;;;26.90;32.60;;;;;;4967729;28;20030;-77
2023/03/11 08:39:03;;;;;;;0.00;0.00;;;27.10;32.70;;;;;;4973396;28;20029;-76
2023/03/11 08:41:34;;;;;;;0.00;0.00;;;25.90;32.70;;;;;;4963387;28;20423;-76
2023/03/11 08:44:00;;;;;;;0.00;0.00;;;25.90;32.90;;;;;;4984822;28;20045;-76
2023/03/11 08:46:34;;;;;;;0.00;0.00;;;25.90;32.70;;;;;;4971764;28;20022;-76
2023/03/11 08:49:06;;;;;;;0.00;0.00;;;25.40;31.80;;;;;;4978327;28;20085;-76
2023/03/11 08:51:34;;;;;;;0.00;0.00;;;26.20;32.40;;;;;;4981300;28;20022;-77
2023/03/11 08:54:02;;;;;;;0.00;0.00;;;26.70;32.40;;;;;;4984166;28;20097;-76
2023/03/11 08:56:35;;;;;;;0.00;0.00;;;27.30;31.70;;;;;;4980475;28;20027;-76
2023/03/11 08:59:00;;;;;;;0.00;0.00;;;27.60;31.70;;;;;;4969884;28;20255;-77
2023/03/11 09:01:28;;;;;;;0.00;0.00;;;26.30;30.80;;;;;;4967362;28;20038;-76
2023/03/11 09:03:55;;;;;;;0.00;0.00;;;24.40;31.70;;;;;;4982076;28;20405;-76
2023/03/11 09:06:29;;;;;;;0.00;0.00;;;23.80;32.50;;;;;;4977537;28;20034;-76
2023/03/11 09:08:55;;;;;;;0.00;0.00;;;21.20;33.70;;;;;;4982005;28;20093;-75
2023/03/11 09:11:23;;;;;;;0.00;0.00;;;22.20;34.20;;;;;;4976341;28;20117;-76
2023/03/11 09:13:49;;;;;;;0.00;0.00;;;23.20;33.20;;;;;;4986259;28;20033;-76
2023/03/11 09:16:20;;;;;;;0.00;0.00;;;21.90;33.20;;;;;;4964114;28;20113;-75
2023/03/11 09:18:50;;;;;;;0.00;0.00;;;20.10;34.30;;;;;;4968069;28;20066;-76
2023/03/11 09:21:16;;;;;;;0.00;0.00;;;20.10;35.50;;;;;;4964787;28;20033;-76
2023/03/11 09:23:44;;;;;;;0.00;0.00;;;19.20;35.10;;;;;;4971943;28;20018;-75
2023/03/11 09:26:21;;;;;;;0.00;0.00;;;18.00;36.60;;;;;;4970404;28;20022;-75
2023/03/11 09:28:50;;;;;;;;;;;20.00;35.70;;;;;;4982521;28;20069;-76
2023/03/11 09:31:18;;;;;;;0.00;0.00;;;19.90;34.90;;;;;;4982556;28;20425;-77
2023/03/11 09:33:45;;;;;;;0.00;0.00;;;19.30;35.70;;;;;;4981521;28;20018;-76
2023/03/11 09:36:17;;;;;;;0.00;0.00;;;17.90;36.20;;;;;;4981283;28;20705;-76
2023/03/11 09:38:44;;;;;;;0.00;0.00;;;17.50;37.20;;;;;;4967598;28;20034;-76
2023/03/11 09:41:16;;;;;;;0.00;0.00;;;16.00;38.20;;;;;;4979837;28;20081;-76
2023/03/11 09:44:01;;;;;;;0.00;0.00;;;14.80;39.90;;;;;;4987709;28;20024;-75
2023/03/11 09:46:31;;;;;;;0.00;0.00;;;13.40;42.50;;;;;;4981527;28;20114;-75
2023/03/11 09:49:22;;;;;;;0.00;0.00;;;12.80;43.20;;;;;;4967367;28;20033;-75
2023/03/11 09:52:14;;;;;;;0.00;0.00;;;12.10;44.40;;;;;;4981621;28;20118;-76
2023/03/11 09:54:46;;;;;;;0.00;0.00;;;11.60;44.90;;;;;;4981407;28;20041;-76
2023/03/11 09:57:21;;;;;;;0.00;0.00;;;10.90;46.10;;;;;;4979886;28;20026;-75
2023/03/11 09:59:47;;;;;;;0.00;0.00;;;10.60;47.30;;;;;;4964392;28;20088;-76
2023/03/11 10:02:26;;;;;;;0.00;0.00;;;10.10;47.90;;;;;;4966480;28;20800;-75
2023/03/11 10:04:58;;;;;;;0.00;0.00;;;10.20;48.70;;;;;;4970711;28;20046;-75
2023/03/11 10:07:39;;;;;;;0.00;0.00;;;10.00;48.20;;;;;;4969060;28;20015;-75
2023/03/11 10:10:10;;;;;;;0.00;0.00;;;9.90;48.30;;;;;;4976902;28;20022;-76
2023/03/11 10:13:14;;;;;;;0.00;0.00;;;9.70;48.70;;;;;;4964212;28;20026;-76
2023/03/11 10:16:03;;;;;;;0.00;0.00;;;9.60;49.10;;;;;;4966661;28;20018;-76
2023/03/11 10:18:48;;;;;;;0.00;0.00;;;9.60;49.70;;;;;;4981173;28;20026;-75
2023/03/11 10:21:34;;;;;;;0.00;0.00;;;9.60;50.40;;;;;;4991950;28;20033;-75
2023/03/11 10:24:11;;;;;;;0.00;0.00;;;10.00;50.40;;;;;;4986068;28;20077;-75
2023/03/11 10:26:50;;;;;;;0.00;0.00;;;10.50;49.70;;;;;;4969457;28;20054;-75
2023/03/11 10:29:20;;;;;;;0.00;0.00;;;10.40;49.30;;;;;;4971689;28;20357;-75
2023/03/11 10:31:56;;;;;;;0.00;0.00;;;10.70;49.10;;;;;;4979945;28;20484;-75
2023/03/11 10:34:47;;;;;;;0.00;0.00;;;10.30;49.20;;;;;;4978244;28;20030;-75
2023/03/11 10:37:30;;;;;;;0.00;0.00;;;10.30;49.40;;;;;;4968583;28;20053;-75
2023/03/11 10:40:09;;;;;;;0.00;0.00;;;11.00;48.80;;;;;;4982494;28;20046;-75
2023/03/11 10:42:36;;;;;;;0.00;0.00;;;11.20;48.40;;;;;;4969061;28;20759;-76
2023/03/11 10:45:03;;;;;;;0.00;0.00;;;11.70;47.80;;;;;;4977506;28;20057;-75
2023/03/11 10:47:29;;;;;;;0.00;0.00;;;11.30;47.40;;;;;;4982219;28;20650;-76
2023/03/11 10:49:54;;;;;;;0.00;0.00;;;10.80;47.60;;;;;;4963380;28;20026;-76
2023/03/11 10:52:20;;;;;;;0.00;0.00;;;10.20;48.10;;;;;;4969675;28;20030;-76
2023/03/11 10:54:59;;;;;;;0.00;0.00;;;9.90;48.40;;;;;;4982231;28;20056;-76
2023/03/11 10:57:37;;;;;;;0.00;0.00;;;9.60;49.10;;;;;;4981921;28;20475;-75
2023/03/11 11:00:15;;;;;;;0.00;0.00;;;9.30;49.60;;;;;;4981133;28;20081;-76
2023/03/11 11:02:50;;;;;;;0.00;0.00;;;9.10;50.10;;;;;;4972120;28;20113;-76
2023/03/11 11:05:19;;;;;;;0.00;0.00;;;9.40;50.30;;;;;;4967948;28;20018;-76
2023/03/11 11:07:51;;;;;;;0.00;0.00;;;11.00;48.20;;;;;;4970061;28;20026;-76
2023/03/11 11:10:23;;;;;;;0.00;0.00;;;12.90;45.10;;;;;;4985406;28;20089;-77
2023/03/11 11:13:16;;;;;;;0.00;0.00;;;12.70;44.20;;;;;;4990026;28;20038;-76
2023/03/11 11:15:50;;;;;;;0.00;0.00;;;12.10;45.50;;;;;;4989679;28;20015;-76
2023/03/11 11:18:24;;;;;;;0.00;0.00;;;11.60;46.30;;;;;;4975962;28;20023;-76
2023/03/11 11:21:02;;;;;;;0.00;0.00;;;11.60;46.70;;;;;;4985162;28;20074;-76
2023/03/11 11:23:39;;;;;;;0.00;0.00;;;11.80;46.50;;;;;;4970214;28;20022;-75
2023/03/11 11:26:23;;;;;;;0.00;0.00;;;12.10;46.10;;;;;;4966791;28;20015;-74
2023/03/11 11:29:19;;;;;;;0.00;0.00;;;12.40;45.50;;;;;;4982993;28;20041;-74
2023/03/11 11:31:48;;;;;;;0.00;0.00;;;12.80;45.30;;;;;;4971519;28;20023;-74
2023/03/11 11:34:33;;;;;;;0.00;0.00;;;12.60;44.60;;;;;;4992668;28;20022;-77
2023/03/11 11:37:13;;;;;;;0.00;0.00;;;12.00;44.70;;;;;;4972245;28;20030;-78
2023/03/11 11:39:50;;;;;;;0.00;0.00;;;11.30;46.30;;;;;;4986322;28;20061;-76
2023/03/11 11:42:21;;;;;;;0.00;0.00;;;10.90;47.70;;;;;;4971269;28;20029;-76
2023/03/11 11:44:51;;;;;;;0.00;0.00;;;10.40;48.30;;;;;;4983894;28;20388;-75
2023/03/11 11:47:26;;;;;;;0.00;0.00;;;9.60;49.40;;;;;;4967916;28;20030;-75
2023/03/11 11:49:59;;;;;;;0.00;0.00;;;9.30;49.50;;;;;;4980262;28;20034;-75
2023/03/11 11:52:31;;;;;;;0.00;0.00;;;9.40;50.00;;;;;;4986550;28;20448;-76
2023/03/11 11:55:26;;;;;;;0.00;0.00;;;9.40;49.80;;;;;;4981101;28;20023;-75
2023/03/11 11:57:53;;;;;;;0.00;0.00;;;9.40;49.20;;;;;;4981359;28;20093;-76
2023/03/11 12:00:23;;;;;;;;;;;9.40;48.80;;;;;;4985551;28;20671;-75
2023/03/11 12:03:14;;;;;;;0.00;0.00;;;9.40;49.20;;;;;;4982678;28;20568;-72
2023/03/11 12:05:56;;;;;;;0.00;0.00;;;9.80;52.70;;;;;;4982903;28;20026;-71
2023/03/11 12:08:35;;;;;;;0.00;0.00;;;10.20;52.10;;;;;;4966274;28;20044;-72
2023/03/11 12:11:05;;;;;;;0.00;0.00;;;10.90;51.90;;;;;;4977231;28;20467;-72
2023/03/11 12:13:47;;;;;;;0.00;0.00;;;11.30;48.70;;;;;;4969330;28;20353;-73
2023/03/11 12:16:46;;;;;;;0.00;0.00;;;11.40;47.70;;;;;;4971985;28;20018;-72
2023/03/11 12:19:39;;;;;;;0.00;0.00;;;11.20;47.50;;;;;;4986756;28;20025;-72
2023/03/11 12:22:29;;;;;;;0.00;0.00;;;11.20;48.40;;;;;;4950436;28;20035;-73
2023/03/11 12:25:10;;;;;;;0.00;0.00;;;11.20;49.40;;;;;;4984261;28;20022;-72
2023/03/11 12:27:57;;;;;;;0.00;0.00;;;11.10;48.30;;;;;;4964814;28;20029;-73
2023/03/11 12:30:28;;;;;;;0.00;0.00;;;10.80;47.80;;;;;;4983708;28;20372;-75
2023/03/11 12:33:04;;;;;;;0.00;0.00;;;10.40;47.50;;;;;;4981991;28;20483;-76
2023/03/11 12:35:36;;;;;;;0.00;0.00;;;9.80;48.40;;;;;;4984071;28;20034;-75
2023/03/11 12:38:24;;;;;;;0.00;0.00;;;9.50;49.20;;;;;;4972503;28;20029;-75
2023/03/11 12:41:00;;;;;;;;;;;9.30;49.80;;;;;;4977104;28;20022;-76
2023/03/11 12:43:37;;;;;;;0.00;0.00;;;9.30;50.40;;;;;;4973746;28;19910;-75
2023/03/11 12:46:12;;;;;;;0.00;0.00;;;9.30;50.80;;;;;;4963753;28;20094;-76
2023/03/11 12:49:11;;;;;;;0.00;0.00;;;9.30;51.00;;;;;;4981760;28;20254;-75
2023/03/11 12:51:40;;;;;;;0.00;0.00;;;9.20;51.20;;;;;;4962854;28;20022;-75
2023/03/11 12:54:34;;;;;;;0.00;0.00;;;9.10;51.40;;;;;;4982363;28;20024;-75
2023/03/11 12:57:18;;;;;;;0.00;0.00;;;9.10;51.40;;;;;;4976941;28;20054;-76
2023/03/11 13:00:21;;;;;;;0.00;0.00;;;9.30;51.60;;;;;;4985345;28;20025;-75
2023/03/11 13:03:18;;;;;;;0.00;0.00;;;9.30;52.80;;;;;;4965445;28;20037;-75
2023/03/11 13:05:53;;;;;;;0.00;0.00;;;9.20;51.60;;;;;;4964336;28;20116;-75
2023/03/11 13:08:23;;;;;;;0.00;0.00;;;9.20;51.70;;;;;;4985799;28;20027;-75
2023/03/11 13:10:56;;;;;;;0.00;0.00;;;9.20;51.90;;;;;;4978255;28;20109;-74
2023/03/11 13:13:41;;;;;;;0.00;0.00;;;9.20;52.00;;;;;;4971828;28;20109;-75
2023/03/11 13:16:36;;;;;;;0.00;0.00;;;9.00;52.40;;;;;;4980933;28;20077;-75
2023/03/11 13:19:46;;;;;;;0.00;0.00;;;8.80;52.80;;;;;;4968523;28;20022;-74
2023/03/11 13:22:42;;;;;;;0.00;0.00;;;8.70;52.90;;;;;;4923918;28;20091;-75